Impacts TAF Board INFO
FOR SITUATIONAL AWARENESS. NOT TO BE USED FOR FLIGHT PLANNING PURPOSES.
IDs:

KDFW - Dallas-Ft Worth Intl, TX, US

Issued at 2050 UTC 25 Mar 2017
Updated at 2140 UTC 25 Mar 2017
Potential Impact None Slight Moderate High
Time2053Z 25/22Z 25/23Z 26/00Z 26/01Z 26/02Z 26/03Z 26/04Z 26/05Z 26/06Z 26/07Z 26/08Z 26/09Z 26/10Z
Type OBS PRVL PRVL PRVL PRVL PRVL PRVL PRVL PRVL PRVL PRVL PRVL PRVL PRVL
VIS 10 >6 >6 >6 >6 >6 >6 >6 >6 >6 >6 >6 >6 >6
CIG -- -- -- -- -- -- -- -- -- -- -- -- -- --
Cover FEW FEW FEW FEW FEW FEW FEW FEW FEW FEW FEW FEW FEW FEW
FltCat VFR VFR VFR VFR VFR VFR VFR VFR VFR VFR VFR VFR VFR VFR
WX -- -- -- -- -- -- -- -- -- -- -- -- -- --
WDir 240 290 290 290 290 VRB VRB VRB VRB VRB 150 150 150 150
WSpd 8 9 9 9 9 4 4 4 4 4 6 6 6 6
WGst -- -- -- -- -- -- -- -- -- -- -- -- -- --

Raw TAF
KDFW 252050Z 2521/2624 29009KT P6SM FEW040
  FM260200 VRB04KT P6SM FEW250
  FM260700 15006KT P6SM FEW250
  FM261600 17014G24KT P6SM SCT035 SCT250


Raw METAR
KDFW 252053Z 24008KT 10SM FEW045 FEW300 22/07 A2993 RMK AO2 SLP130 T02170072 56028
KDFW 251953Z 26010G15KT 10SM FEW045 21/08 A2996 RMK AO2 SLP139 T02110078
KDFW 251853Z 26012KT 10SM FEW044 20/08 A2999 RMK AO2 SLP150 T02000078

METAR Board
Radar Display
Forecast Discussion

FOR SITUATIONAL AWARENESS. NOT TO BE USED FOR FLIGHT PLANNING PURPOSES.

Page loaded:  21:40 UTC  |   02:40 PM Pacific  |   03:40 PM Mountain  |   04:40 PM Central  |   05:40 PM Eastern

 

ADVISORIES

FORECASTS

FORECASTS

OBSERVATIONS

USER TOOLS

ABOUT US